sensor_id;sensor_type;location;lat;lon;timestamp;pressure;altitude;pressure_sealevel;temperature;humidity
21359;BME280;13506;50.852;20.632;2023-11-19T00:00:10;98739.69;;;1.11;87.69
21359;BME280;13506;50.852;20.632;2023-11-19T00:02:59;98738.00;;;1.12;88.81
21359;BME280;13506;50.852;20.632;2023-11-19T00:05:29;98752.56;;;1.13;88.41
21359;BME280;13506;50.852;20.632;2023-11-19T00:07:57;98760.31;;;1.11;88.36
21359;BME280;13506;50.852;20.632;2023-11-19T00:10:25;98759.41;;;1.14;88.33
21359;BME280;13506;50.852;20.632;2023-11-19T00:12:53;98754.25;;;1.14;87.58
21359;BME280;13506;50.852;20.632;2023-11-19T00:15:23;98754.38;;;1.09;87.25
21359;BME280;13506;50.852;20.632;2023-11-19T00:17:52;98747.56;;;1.07;87.58
21359;BME280;13506;50.852;20.632;2023-11-19T00:20:20;98744.19;;;1.05;87.64
21359;BME280;13506;50.852;20.632;2023-11-19T00:22:50;98739.97;;;1.02;87.94
21359;BME280;13506;50.852;20.632;2023-11-19T00:25:18;98732.25;;;1.02;88.41
21359;BME280;13506;50.852;20.632;2023-11-19T00:27:46;98737.41;;;1.01;88.46
21359;BME280;13506;50.852;20.632;2023-11-19T00:30:15;98738.28;;;1.01;88.22
21359;BME280;13506;50.852;20.632;2023-11-19T00:32:43;98725.44;;;0.99;87.92
21359;BME280;13506;50.852;20.632;2023-11-19T00:35:12;98733.22;;;0.98;88.02
21359;BME280;13506;50.852;20.632;2023-11-19T00:37:41;98722.91;;;0.98;87.73
21359;BME280;13506;50.852;20.632;2023-11-19T00:40:11;98725.59;;;0.93;88.11
21359;BME280;13506;50.852;20.632;2023-11-19T00:42:39;98729.94;;;0.93;88.12
21359;BME280;13506;50.852;20.632;2023-11-19T00:45:07;98731.59;;;0.94;88.32
21359;BME280;13506;50.852;20.632;2023-11-19T00:47:36;98728.16;;;0.95;88.18
21359;BME280;13506;50.852;20.632;2023-11-19T00:50:05;98723.84;;;0.95;88.07
21359;BME280;13506;50.852;20.632;2023-11-19T00:52:36;98720.47;;;0.93;87.70
21359;BME280;13506;50.852;20.632;2023-11-19T00:55:05;98716.16;;;0.94;88.22
21359;BME280;13506;50.852;20.632;2023-11-19T00:57:34;98711.00;;;0.94;87.76
21359;BME280;13506;50.852;20.632;2023-11-19T01:00:04;98701.53;;;0.94;88.07
21359;BME280;13506;50.852;20.632;2023-11-19T01:02:36;98699.22;;;0.85;87.78
21359;BME280;13506;50.852;20.632;2023-11-19T01:05:07;98686.47;;;0.81;88.20
21359;BME280;13506;50.852;20.632;2023-11-19T01:07:36;98700.28;;;0.78;88.19
21359;BME280;13506;50.852;20.632;2023-11-19T01:10:06;98687.31;;;0.81;88.79
21359;BME280;13506;50.852;20.632;2023-11-19T01:12:36;98688.09;;;0.83;88.74
21359;BME280;13506;50.852;20.632;2023-11-19T01:15:06;98680.34;;;0.85;88.69
21359;BME280;13506;50.852;20.632;2023-11-19T01:17:36;98682.03;;;0.86;88.55
21359;BME280;13506;50.852;20.632;2023-11-19T01:20:05;98670.97;;;0.82;88.38
21359;BME280;13506;50.852;20.632;2023-11-19T01:22:34;98672.66;;;0.83;88.22
21359;BME280;13506;50.852;20.632;2023-11-19T01:25:02;98665.88;;;0.81;88.78
21359;BME280;13506;50.852;20.632;2023-11-19T01:27:32;98671.03;;;0.81;88.98
21359;BME280;13506;50.852;20.632;2023-11-19T01:30:03;98673.56;;;0.82;88.74
21359;BME280;13506;50.852;20.632;2023-11-19T01:32:32;98670.88;;;0.85;89.76
21359;BME280;13506;50.852;20.632;2023-11-19T01:35:01;98665.66;;;0.88;89.95
21359;BME280;13506;50.852;20.632;2023-11-19T01:37:29;98646.75;;;0.89;88.68
21359;BME280;13506;50.852;20.632;2023-11-19T01:39:58;98650.22;;;0.88;88.50
21359;BME280;13506;50.852;20.632;2023-11-19T01:42:28;98640.72;;;0.90;89.12
21359;BME280;13506;50.852;20.632;2023-11-19T01:44:58;98643.41;;;0.86;88.16
21359;BME280;13506;50.852;20.632;2023-11-19T01:47:30;98637.41;;;0.85;88.33
21359;BME280;13506;50.852;20.632;2023-11-19T01:49:59;98649.41;;;0.86;88.76
21359;BME280;13506;50.852;20.632;2023-11-19T01:52:29;98637.41;;;0.85;88.77
21359;BME280;13506;50.852;20.632;2023-11-19T01:54:57;98642.84;;;0.74;88.45
21359;BME280;13506;50.852;20.632;2023-11-19T01:57:26;98631.63;;;0.77;88.96
21359;BME280;13506;50.852;20.632;2023-11-19T01:59:54;98636.94;;;0.71;89.28
21359;BME280;13506;50.852;20.632;2023-11-19T02:02:22;98632.16;;;0.58;89.66
21359;BME280;13506;50.852;20.632;2023-11-19T02:04:54;98630.63;;;0.51;90.34
21359;BME280;13506;50.852;20.632;2023-11-19T02:07:22;98622.66;;;0.28;92.63
21359;BME280;13506;50.852;20.632;2023-11-19T02:09:52;98608.81;;;0.33;91.64
21359;BME280;13506;50.852;20.632;2023-11-19T02:12:20;98612.97;;;0.37;91.63
21359;BME280;13506;50.852;20.632;2023-11-19T02:14:48;98610.16;;;0.47;91.91
21359;BME280;13506;50.852;20.632;2023-11-19T02:17:26;98599.06;;;0.45;91.46
21359;BME280;13506;50.852;20.632;2023-11-19T02:19:59;98588.75;;;0.45;91.25
21359;BME280;13506;50.852;20.632;2023-11-19T02:22:28;98584.38;;;0.48;91.66
21359;BME280;13506;50.852;20.632;2023-11-19T02:25:00;98579.06;;;0.54;91.82
21359;BME280;13506;50.852;20.632;2023-11-19T02:27:41;98584.94;;;0.58;91.54
21359;BME280;13506;50.852;20.632;2023-11-19T02:30:12;98584.88;;;0.61;91.18
21359;BME280;13506;50.852;20.632;2023-11-19T02:32:41;98585.75;;;0.60;90.93
21359;BME280;13506;50.852;20.632;2023-11-19T02:35:11;98579.88;;;0.56;91.19
21359;BME280;13506;50.852;20.632;2023-11-19T02:37:40;98571.22;;;0.59;91.26
21359;BME280;13506;50.852;20.632;2023-11-19T02:40:08;98574.59;;;0.61;91.55
21359;BME280;13506;50.852;20.632;2023-11-19T02:42:36;98573.53;;;0.67;91.88
21359;BME280;13506;50.852;20.632;2023-11-19T02:45:06;98572.69;;;0.68;91.44
21359;BME280;13506;50.852;20.632;2023-11-19T02:47:41;98571.66;;;0.73;91.71
21359;BME280;13506;50.852;20.632;2023-11-19T02:50:11;98574.94;;;0.78;91.08
21359;BME280;13506;50.852;20.632;2023-11-19T02:52:41;98567.22;;;0.78;91.30
21359;BME280;13506;50.852;20.632;2023-11-19T02:55:10;98567.22;;;0.78;90.94
21359;BME280;13506;50.852;20.632;2023-11-19T02:57:40;98557.69;;;0.82;90.95
21359;BME280;13506;50.852;20.632;2023-11-19T03:00:14;98555.97;;;0.81;90.34
21359;BME280;13506;50.852;20.632;2023-11-19T03:02:43;98551.72;;;0.80;90.35
21359;BME280;13506;50.852;20.632;2023-11-19T03:05:15;98553.44;;;0.79;90.96
21359;BME280;13506;50.852;20.632;2023-11-19T03:07:44;98541.44;;;0.80;90.60
21359;BME280;13506;50.852;20.632;2023-11-19T03:10:13;98542.06;;;0.58;91.57
21359;BME280;13506;50.852;20.632;2023-11-19T03:12:41;98532.53;;;0.61;91.16
21359;BME280;13506;50.852;20.632;2023-11-19T03:15:10;98517.28;;;0.54;91.34
21359;BME280;13506;50.852;20.632;2023-11-19T03:17:41;98514.59;;;0.59;92.37
21359;BME280;13506;50.852;20.632;2023-11-19T03:20:12;98505.13;;;0.60;92.31
21359;BME280;13506;50.852;20.632;2023-11-19T03:22:42;98505.00;;;0.63;92.36
21359;BME280;13506;50.852;20.632;2023-11-19T03:25:09;98501.59;;;0.62;91.87
21359;BME280;13506;50.852;20.632;2023-11-19T03:27:38;98502.34;;;0.67;92.00
21359;BME280;13506;50.852;20.632;2023-11-19T03:30:09;98487.69;;;0.69;92.06
21359;BME280;13506;50.852;20.632;2023-11-19T03:32:38;98473.88;;;0.72;92.03
21359;BME280;13506;50.852;20.632;2023-11-19T03:35:08;98483.25;;;0.73;91.21
21359;BME280;13506;50.852;20.632;2023-11-19T03:37:36;98481.59;;;0.72;91.86
21359;BME280;13506;50.852;20.632;2023-11-19T03:40:05;98475.50;;;0.74;91.33
21359;BME280;13506;50.852;20.632;2023-11-19T03:42:33;98463.59;;;0.70;90.88
21359;BME280;13506;50.852;20.632;2023-11-19T03:45:02;98452.38;;;0.73;91.83
21359;BME280;13506;50.852;20.632;2023-11-19T03:47:31;98453.41;;;0.67;90.51
21359;BME280;13506;50.852;20.632;2023-11-19T03:49:59;98446.53;;;0.68;91.05
21359;BME280;13506;50.852;20.632;2023-11-19T03:52:29;98448.16;;;0.70;91.36
21359;BME280;13506;50.852;20.632;2023-11-19T03:54:57;98449.31;;;0.60;91.33
21359;BME280;13506;50.852;20.632;2023-11-19T03:57:25;98451.72;;;0.66;91.48
21359;BME280;13506;50.852;20.632;2023-11-19T03:59:55;98445.88;;;0.61;91.15
21359;BME280;13506;50.852;20.632;2023-11-19T04:02:25;98456.81;;;0.68;91.18
21359;BME280;13506;50.852;20.632;2023-11-19T04:04:55;98444.94;;;0.64;90.72
21359;BME280;13506;50.852;20.632;2023-11-19T04:07:23;98435.72;;;0.56;91.15
21359;BME280;13506;50.852;20.632;2023-11-19T04:09:53;98428.38;;;0.44;91.04
21359;BME280;13506;50.852;20.632;2023-11-19T04:12:21;98431.63;;;0.49;91.09
21359;BME280;13506;50.852;20.632;2023-11-19T04:14:49;98428.25;;;0.47;91.12
21359;BME280;13506;50.852;20.632;2023-11-19T04:17:20;98417.00;;;0.51;91.31
21359;BME280;13506;50.852;20.632;2023-11-19T04:19:47;98417.97;;;0.47;91.64
21359;BME280;13506;50.852;20.632;2023-11-19T04:22:15;98412.81;;;0.47;91.32
21359;BME280;13506;50.852;20.632;2023-11-19T04:24:43;98419.75;;;0.45;91.49
21359;BME280;13506;50.852;20.632;2023-11-19T04:27:14;98406.84;;;0.47;91.76
21359;BME280;13506;50.852;20.632;2023-11-19T04:29:43;98396.63;;;0.15;92.51
21359;BME280;13506;50.852;20.632;2023-11-19T04:32:12;98402.91;;;0.05;91.91
21359;BME280;13506;50.852;20.632;2023-11-19T04:34:40;98398.38;;;0.13;92.14
21359;BME280;13506;50.852;20.632;2023-11-19T04:37:08;98384.06;;;-0.25;95.95
21359;BME280;13506;50.852;20.632;2023-11-19T04:39:36;98377.72;;;-0.43;97.01
21359;BME280;13506;50.852;20.632;2023-11-19T04:42:05;98374.25;;;-0.42;96.35
21359;BME280;13506;50.852;20.632;2023-11-19T04:44:34;98365.47;;;-0.66;98.06
21359;BME280;13506;50.852;20.632;2023-11-19T04:47:02;98353.63;;;-0.72;100.00
21359;BME280;13506;50.852;20.632;2023-11-19T04:49:30;98352.22;;;-0.51;100.00
21359;BME280;13506;50.852;20.632;2023-11-19T04:51:58;98351.66;;;-0.31;98.94
21359;BME280;13506;50.852;20.632;2023-11-19T04:54:26;98348.72;;;-0.48;98.14
21359;BME280;13506;50.852;20.632;2023-11-19T04:56:54;98345.41;;;-0.85;100.00
21359;BME280;13506;50.852;20.632;2023-11-19T04:59:22;98352.97;;;-0.78;100.00
21359;BME280;13506;50.852;20.632;2023-11-19T05:01:51;98344.72;;;-0.90;100.00
21359;BME280;13506;50.852;20.632;2023-11-19T05:04:20;98354.31;;;-0.65;100.00
21359;BME280;13506;50.852;20.632;2023-11-19T05:06:49;98347.78;;;-0.77;100.00
21359;BME280;13506;50.852;20.632;2023-11-19T05:09:16;98351.53;;;-0.57;100.00
21359;BME280;13506;50.852;20.632;2023-11-19T05:11:44;98362.19;;;-0.40;100.00
21359;BME280;13506;50.852;20.632;2023-11-19T05:14:12;98351.53;;;-0.26;99.24
21359;BME280;13506;50.852;20.632;2023-11-19T05:16:40;98362.34;;;-0.15;97.59
21359;BME280;13506;50.852;20.632;2023-11-19T05:19:10;98344.69;;;-0.27;92.95
21359;BME280;13506;50.852;20.632;2023-11-19T05:21:38;98350.34;;;-0.14;93.28
21359;BME280;13506;50.852;20.632;2023-11-19T05:24:06;98357.00;;;-0.07;93.84
21359;BME280;13506;50.852;20.632;2023-11-19T05:26:36;98346.03;;;-0.14;91.94
21359;BME280;13506;50.852;20.632;2023-11-19T05:29:04;98340.69;;;-0.06;93.03
21359;BME280;13506;50.852;20.632;2023-11-19T05:31:32;98330.66;;;-0.15;91.40
21359;BME280;13506;50.852;20.632;2023-11-19T05:34:00;98331.28;;;-0.07;91.74
21359;BME280;13506;50.852;20.632;2023-11-19T05:36:29;98328.63;;;-0.04;90.65
21359;BME280;13506;50.852;20.632;2023-11-19T05:38:57;98328.00;;;-0.12;90.56
21359;BME280;13506;50.852;20.632;2023-11-19T05:41:25;98329.59;;;-0.38;92.32
21359;BME280;13506;50.852;20.632;2023-11-19T05:43:53;98337.63;;;-0.50;92.30
21359;BME280;13506;50.852;20.632;2023-11-19T05:46:21;98334.91;;;-0.44;92.84
21359;BME280;13506;50.852;20.632;2023-11-19T05:48:49;98333.28;;;-0.48;94.78
21359;BME280;13506;50.852;20.632;2023-11-19T05:51:17;98320.81;;;-0.93;95.82
21359;BME280;13506;50.852;20.632;2023-11-19T05:53:47;98318.56;;;-0.73;96.66
21359;BME280;13506;50.852;20.632;2023-11-19T05:56:16;98322.66;;;-0.66;94.77
21359;BME280;13506;50.852;20.632;2023-11-19T05:58:48;98321.91;;;-0.71;94.99
21359;BME280;13506;50.852;20.632;2023-11-19T06:01:16;98318.56;;;-0.73;95.92
21359;BME280;13506;50.852;20.632;2023-11-19T06:03:44;98326.00;;;-0.62;95.49
21359;BME280;13506;50.852;20.632;2023-11-19T06:06:16;98323.25;;;-0.56;94.97
21359;BME280;13506;50.852;20.632;2023-11-19T06:08:44;98323.28;;;-0.57;94.68
21359;BME280;13506;50.852;20.632;2023-11-19T06:11:14;98325.06;;;-0.59;95.19
21359;BME280;13506;50.852;20.632;2023-11-19T06:13:45;98323.59;;;-0.68;94.53
21359;BME280;13506;50.852;20.632;2023-11-19T06:16:13;98314.00;;;-0.63;94.96
21359;BME280;13506;50.852;20.632;2023-11-19T06:18:41;98312.63;;;-0.75;94.41
21359;BME280;13506;50.852;20.632;2023-11-19T06:21:10;98307.59;;;-0.48;94.31
21359;BME280;13506;50.852;20.632;2023-11-19T06:23:38;98312.50;;;-0.70;94.89
21359;BME280;13506;50.852;20.632;2023-11-19T06:26:06;98311.94;;;-0.50;94.93
21359;BME280;13506;50.852;20.632;2023-11-19T06:28:36;98304.84;;;-0.42;94.56
21359;BME280;13506;50.852;20.632;2023-11-19T06:31:04;98304.69;;;-0.36;94.18
21359;BME280;13506;50.852;20.632;2023-11-19T06:33:32;98293.91;;;-0.49;94.94
21359;BME280;13506;50.852;20.632;2023-11-19T06:36:00;98292.00;;;-0.72;95.44
21359;BME280;13506;50.852;20.632;2023-11-19T06:38:28;98293.50;;;-0.65;97.20
21359;BME280;13506;50.852;20.632;2023-11-19T06:40:56;98294.69;;;-0.76;97.32
21359;BME280;13506;50.852;20.632;2023-11-19T06:43:24;98299.31;;;-0.89;98.13
21359;BME280;13506;50.852;20.632;2023-11-19T06:45:54;98297.94;;;-0.70;98.28
21359;BME280;13506;50.852;20.632;2023-11-19T06:48:22;98294.41;;;-0.66;98.86
21359;BME280;13506;50.852;20.632;2023-11-19T06:50:50;98307.78;;;-0.54;96.31
21359;BME280;13506;50.852;20.632;2023-11-19T06:53:17;98299.78;;;-0.75;99.02
21359;BME280;13506;50.852;20.632;2023-11-19T06:55:45;98281.19;;;-1.16;100.00
21359;BME280;13506;50.852;20.632;2023-11-19T06:58:14;98266.72;;;-1.18;100.00
21359;BME280;13506;50.852;20.632;2023-11-19T07:00:44;98278.72;;;-1.53;100.00
21359;BME280;13506;50.852;20.632;2023-11-19T07:03:15;98270.16;;;-1.54;100.00
21359;BME280;13506;50.852;20.632;2023-11-19T07:05:43;98263.88;;;-1.40;100.00
21359;BME280;13506;50.852;20.632;2023-11-19T07:08:11;98276.63;;;-1.39;100.00
21359;BME280;13506;50.852;20.632;2023-11-19T07:10:39;98275.34;;;-1.21;100.00
21359;BME280;13506;50.852;20.632;2023-11-19T07:13:07;98277.00;;;-1.20;100.00
21359;BME280;13506;50.852;20.632;2023-11-19T07:15:35;98276.44;;;-0.98;100.00
21359;BME280;13506;50.852;20.632;2023-11-19T07:18:03;98261.00;;;-0.97;100.00
21359;BME280;13506;50.852;20.632;2023-11-19T07:20:32;98253.53;;;-1.04;100.00
21359;BME280;13506;50.852;20.632;2023-11-19T07:23:00;98252.44;;;-0.96;100.00
21359;BME280;13506;50.852;20.632;2023-11-19T07:25:29;98256.63;;;-0.93;100.00
21359;BME280;13506;50.852;20.632;2023-11-19T07:27:56;98263.44;;;-0.92;100.00
21359;BME280;13506;50.852;20.632;2023-11-19T07:30:25;98249.44;;;-0.80;100.00
21359;BME280;13506;50.852;20.632;2023-11-19T07:32:52;98253.94;;;-0.89;100.00
21359;BME280;13506;50.852;20.632;2023-11-19T07:35:20;98229.94;;;-1.19;100.00
21359;BME280;13506;50.852;20.632;2023-11-19T07:37:49;98226.69;;;-1.26;100.00
21359;BME280;13506;50.852;20.632;2023-11-19T07:40:17;98213.91;;;-1.27;100.00
21359;BME280;13506;50.852;20.632;2023-11-19T07:42:46;98214.38;;;-1.46;100.00
21359;BME280;13506;50.852;20.632;2023-11-19T07:45:16;98201.94;;;-1.59;100.00
21359;BME280;13506;50.852;20.632;2023-11-19T07:47:44;98203.91;;;-1.71;100.00
21359;BME280;13506;50.852;20.632;2023-11-19T07:50:12;98211.81;;;-1.46;100.00
21359;BME280;13506;50.852;20.632;2023-11-19T07:52:40;98203.44;;;-1.52;100.00
21359;BME280;13506;50.852;20.632;2023-11-19T07:55:10;98208.22;;;-1.38;100.00
21359;BME280;13506;50.852;20.632;2023-11-19T07:57:38;98191.63;;;-1.25;100.00
21359;BME280;13506;50.852;20.632;2023-11-19T08:00:07;98196.66;;;-1.22;100.00
21359;BME280;13506;50.852;20.632;2023-11-19T08:02:41;98189.75;;;-1.20;100.00
21359;BME280;13506;50.852;20.632;2023-11-19T08:05:09;98186.53;;;-1.28;100.00
21359;BME280;13506;50.852;20.632;2023-11-19T08:07:38;98186.97;;;-1.43;100.00
21359;BME280;13506;50.852;20.632;2023-11-19T08:10:06;98188.66;;;-1.11;100.00
21359;BME280;13506;50.852;20.632;2023-11-19T08:12:37;98188.75;;;-1.14;100.00
21359;BME280;13506;50.852;20.632;2023-11-19T08:15:06;98179.78;;;-0.99;100.00
21359;BME280;13506;50.852;20.632;2023-11-19T08:17:34;98178.16;;;-1.02;100.00
21359;BME280;13506;50.852;20.632;2023-11-19T08:20:03;98186.09;;;-0.81;100.00
21359;BME280;13506;50.852;20.632;2023-11-19T08:22:31;98189.50;;;-0.51;100.00
21359;BME280;13506;50.852;20.632;2023-11-19T08:24:59;98176.88;;;-0.31;100.00
21359;BME280;13506;50.852;20.632;2023-11-19T08:27:27;98176.00;;;-0.30;100.00
21359;BME280;13506;50.852;20.632;2023-11-19T08:29:56;98173.63;;;-0.64;100.00
21359;BME280;13506;50.852;20.632;2023-11-19T08:32:24;98156.47;;;-0.63;100.00
21359;BME280;13506;50.852;20.632;2023-11-19T08:34:52;98154.44;;;-0.82;100.00
21359;BME280;13506;50.852;20.632;2023-11-19T08:37:20;98150.97;;;-0.51;100.00
21359;BME280;13506;50.852;20.632;2023-11-19T08:39:49;98152.94;;;-0.33;100.00
21359;BME280;13506;50.852;20.632;2023-11-19T08:42:17;98143.59;;;-0.07;100.00
21359;BME280;13506;50.852;20.632;2023-11-19T08:44:51;98143.13;;;0.07;100.00
21359;BME280;13506;50.852;20.632;2023-11-19T08:47:22;98130.78;;;-0.09;100.00
21359;BME280;13506;50.852;20.632;2023-11-19T08:49:51;98138.13;;;0.02;100.00
21359;BME280;13506;50.852;20.632;2023-11-19T08:52:20;98147.78;;;-0.31;100.00
21359;BME280;13506;50.852;20.632;2023-11-19T08:54:48;98139.13;;;-0.02;99.93
21359;BME280;13506;50.852;20.632;2023-11-19T08:57:16;98139.19;;;-0.04;100.00
21359;BME280;13506;50.852;20.632;2023-11-19T08:59:44;98141.31;;;-0.43;100.00
21359;BME280;13506;50.852;20.632;2023-11-19T09:02:12;98144.00;;;-0.19;100.00
21359;BME280;13506;50.852;20.632;2023-11-19T09:04:41;98140.59;;;0.05;100.00
21359;BME280;13506;50.852;20.632;2023-11-19T09:07:11;98133.28;;;0.20;99.06
21359;BME280;13506;50.852;20.632;2023-11-19T09:09:39;98129.91;;;0.43;98.06
21359;BME280;13506;50.852;20.632;2023-11-19T09:12:07;98129.63;;;0.27;96.71
21359;BME280;13506;50.852;20.632;2023-11-19T09:14:35;98118.28;;;0.56;96.27
21359;BME280;13506;50.852;20.632;2023-11-19T09:17:03;98124.03;;;0.63;95.89
21359;BME280;13506;50.852;20.632;2023-11-19T09:19:33;98097.88;;;0.75;95.42
21359;BME280;13506;50.852;20.632;2023-11-19T09:22:03;98094.81;;;0.89;95.32
21359;BME280;13506;50.852;20.632;2023-11-19T09:24:32;98101.34;;;0.74;94.32
21359;BME280;13506;50.852;20.632;2023-11-19T09:26:59;98094.69;;;0.20;96.00
21359;BME280;13506;50.852;20.632;2023-11-19T09:29:32;98087.19;;;0.13;95.86
21359;BME280;13506;50.852;20.632;2023-11-19T09:32:00;98074.44;;;0.10;97.77
21359;BME280;13506;50.852;20.632;2023-11-19T09:34:28;98087.22;;;0.12;97.52
21359;BME280;13506;50.852;20.632;2023-11-19T09:36:55;98087.53;;;0.28;96.65
21359;BME280;13506;50.852;20.632;2023-11-19T09:39:25;98060.81;;;0.32;96.90
21359;BME280;13506;50.852;20.632;2023-11-19T09:41:53;98071.50;;;0.45;95.99
21359;BME280;13506;50.852;20.632;2023-11-19T09:44:21;98062.78;;;0.00;97.32
21359;BME280;13506;50.852;20.632;2023-11-19T09:46:49;98060.25;;;0.24;96.35
21359;BME280;13506;50.852;20.632;2023-11-19T09:49:22;98058.44;;;0.51;95.40
21359;BME280;13506;50.852;20.632;2023-11-19T09:51:54;98047.41;;;0.47;95.56
21359;BME280;13506;50.852;20.632;2023-11-19T09:54:23;98037.69;;;-0.18;99.74
21359;BME280;13506;50.852;20.632;2023-11-19T09:56:51;98031.91;;;-0.25;100.00
21359;BME280;13506;50.852;20.632;2023-11-19T09:59:19;98013.72;;;-0.44;99.96
21359;BME280;13506;50.852;20.632;2023-11-19T10:01:48;98021.38;;;-0.17;99.58
21359;BME280;13506;50.852;20.632;2023-11-19T10:04:17;98019.63;;;-0.42;100.00
21359;BME280;13506;50.852;20.632;2023-11-19T10:06:47;98011.94;;;-0.17;100.00
21359;BME280;13506;50.852;20.632;2023-11-19T10:09:15;98002.66;;;-0.21;99.56
21359;BME280;13506;50.852;20.632;2023-11-19T10:11:44;98009.13;;;-0.09;99.64
21359;BME280;13506;50.852;20.632;2023-11-19T10:14:13;98002.44;;;0.10;98.84
21359;BME280;13506;50.852;20.632;2023-11-19T10:16:41;98002.94;;;-0.05;98.76
21359;BME280;13506;50.852;20.632;2023-11-19T10:19:18;98005.09;;;0.07;98.64
21359;BME280;13506;50.852;20.632;2023-11-19T10:21:47;98008.28;;;0.14;98.72
21359;BME280;13506;50.852;20.632;2023-11-19T10:24:15;97998.28;;;0.30;97.94
21359;BME280;13506;50.852;20.632;2023-11-19T10:26:44;97985.91;;;0.16;97.88
21359;BME280;13506;50.852;20.632;2023-11-19T10:29:13;97977.75;;;0.05;96.58
21359;BME280;13506;50.852;20.632;2023-11-19T10:31:44;97969.56;;;-0.30;100.00
21359;BME280;13506;50.852;20.632;2023-11-19T10:34:25;97962.84;;;-0.34;100.00
21359;BME280;13506;50.852;20.632;2023-11-19T10:36:53;97957.97;;;0.07;99.15
21359;BME280;13506;50.852;20.632;2023-11-19T10:39:21;97951.81;;;0.11;99.02
21359;BME280;13506;50.852;20.632;2023-11-19T10:41:53;97952.50;;;0.40;97.37
21359;BME280;13506;50.852;20.632;2023-11-19T10:44:33;97949.97;;;0.38;97.71
21359;BME280;13506;50.852;20.632;2023-11-19T10:47:02;97947.56;;;0.33;99.24
21359;BME280;13506;50.852;20.632;2023-11-19T10:49:33;97937.66;;;0.46;97.44
21359;BME280;13506;50.852;20.632;2023-11-19T10:52:03;97923.19;;;0.66;96.18
21359;BME280;13506;50.852;20.632;2023-11-19T10:54:35;97927.28;;;0.92;95.89
21359;BME280;13506;50.852;20.632;2023-11-19T10:57:06;97914.16;;;0.98;95.14
21359;BME280;13506;50.852;20.632;2023-11-19T10:59:37;97916.25;;;1.10;92.31
21359;BME280;13506;50.852;20.632;2023-11-19T11:02:09;97918.06;;;1.29;91.07
21359;BME280;13506;50.852;20.632;2023-11-19T11:04:40;97912.97;;;1.27;91.29
21359;BME280;13506;50.852;20.632;2023-11-19T11:07:09;97898.69;;;1.20;90.93
21359;BME280;13506;50.852;20.632;2023-11-19T11:09:38;97893.41;;;1.23;90.68
21359;BME280;13506;50.852;20.632;2023-11-19T11:12:11;97881.78;;;1.13;89.72
21359;BME280;13506;50.852;20.632;2023-11-19T11:14:40;97890.59;;;0.65;92.26
21359;BME280;13506;50.852;20.632;2023-11-19T11:17:10;97881.88;;;0.25;94.65
21359;BME280;13506;50.852;20.632;2023-11-19T11:19:42;97884.16;;;0.54;94.96
21359;BME280;13506;50.852;20.632;2023-11-19T11:22:11;97880.56;;;0.36;95.32
21359;BME280;13506;50.852;20.632;2023-11-19T11:25:02;97865.72;;;0.65;93.64
21359;BME280;13506;50.852;20.632;2023-11-19T11:27:58;97859.38;;;0.52;94.45
21359;BME280;13506;50.852;20.632;2023-11-19T11:31:00;97865.72;;;0.43;95.92
21359;BME280;13506;50.852;20.632;2023-11-19T11:33:48;97864.28;;;0.80;94.57
21359;BME280;13506;50.852;20.632;2023-11-19T11:36:24;97859.25;;;0.97;92.10
21359;BME280;13506;50.852;20.632;2023-11-19T11:38:54;97853.25;;;1.17;91.14
21359;BME280;13506;50.852;20.632;2023-11-19T11:41:27;97834.75;;;1.09;89.57
21359;BME280;13506;50.852;20.632;2023-11-19T11:43:58;97830.88;;;0.99;90.47
21359;BME280;13506;50.852;20.632;2023-11-19T11:46:55;97832.25;;;0.65;91.81
21359;BME280;13506;50.852;20.632;2023-11-19T11:49:27;97814.69;;;0.75;91.44
21359;BME280;13506;50.852;20.632;2023-11-19T11:52:03;97815.47;;;0.12;95.07
21359;BME280;13506;50.852;20.632;2023-11-19T11:54:31;97809.41;;;0.13;97.72
21359;BME280;13506;50.852;20.632;2023-11-19T11:57:06;97798.72;;;0.02;97.42
21359;BME280;13506;50.852;20.632;2023-11-19T11:59:45;97815.94;;;-0.22;100.00
21359;BME280;13506;50.852;20.632;2023-11-19T12:02:15;97798.31;;;-0.33;100.00
21359;BME280;13506;50.852;20.632;2023-11-19T12:04:46;97799.44;;;-0.40;100.00
21359;BME280;13506;50.852;20.632;2023-11-19T12:07:17;97801.09;;;-0.62;100.00
21359;BME280;13506;50.852;20.632;2023-11-19T12:09:48;97782.47;;;-0.44;100.00
21359;BME280;13506;50.852;20.632;2023-11-19T12:12:27;97786.72;;;-0.43;100.00
21359;BME280;13506;50.852;20.632;2023-11-19T12:15:07;97770.13;;;-0.12;100.00
21359;BME280;13506;50.852;20.632;2023-11-19T12:17:47;97784.94;;;-0.19;100.00
21359;BME280;13506;50.852;20.632;2023-11-19T12:20:17;97776.00;;;-0.09;100.00
21359;BME280;13506;50.852;20.632;2023-11-19T12:22:46;97779.72;;;0.06;100.00
21359;BME280;13506;50.852;20.632;2023-11-19T12:25:16;97766.06;;;0.26;100.00
21359;BME280;13506;50.852;20.632;2023-11-19T12:27:48;97778.47;;;0.37;98.57
21359;BME280;13506;50.852;20.632;2023-11-19T12:30:22;97765.38;;;0.43;97.96
21359;BME280;13506;50.852;20.632;2023-11-19T12:32:52;97755.75;;;0.48;97.79
21359;BME280;13506;50.852;20.632;2023-11-19T12:35:20;97761.75;;;0.27;97.11
21359;BME280;13506;50.852;20.632;2023-11-19T12:37:51;97765.59;;;0.16;100.00
21359;BME280;13506;50.852;20.632;2023-11-19T12:40:21;97756.19;;;0.15;100.00
21359;BME280;13506;50.852;20.632;2023-11-19T12:42:50;97754.09;;;0.03;100.00
21359;BME280;13506;50.852;20.632;2023-11-19T12:45:20;97747.47;;;0.20;100.00
21359;BME280;13506;50.852;20.632;2023-11-19T12:47:51;97744.13;;;-0.27;100.00
21359;BME280;13506;50.852;20.632;2023-11-19T12:50:50;97745.16;;;-0.09;100.00
21359;BME280;13506;50.852;20.632;2023-11-19T12:53:19;97738.38;;;0.11;100.00
21359;BME280;13506;50.852;20.632;2023-11-19T12:55:47;97730.69;;;-0.11;100.00
21359;BME280;13506;50.852;20.632;2023-11-19T12:58:30;97735.63;;;-0.29;100.00
21359;BME280;13506;50.852;20.632;2023-11-19T13:01:05;97722.44;;;-0.65;100.00
21359;BME280;13506;50.852;20.632;2023-11-19T13:03:34;97716.75;;;-0.73;100.00
21359;BME280;13506;50.852;20.632;2023-11-19T13:06:04;97712.66;;;-1.02;100.00